Cornishville, Kentucky
Current Conditions -  °F | °C
As of 7:55 AM on Wednesday 26 Nov 2014 (Local Time) from KDVK Reporting Station
Clear Clear  
Wind Chill: 22°   Ceiling: Unl
Heat Index: 28°   Visibility: 7mi
Dew Point: 28°   Wind: 6mph
Humidity: 100%   Direction: 320°NW
Pressure: 30.1"   Gusts: NA
Location:  37.7856°N, 84.8966°W
Report Text: KDVK 261255Z AUTO 32005KT 7SM CLR M02/M02 A3010 RMK AO2
Loading
Personal Weather Stations






























Interactive Weather Map New forecast layout! Learn more

10-Day Weather Forecast

Advertisements
Track Severe Weather on mobile